Time;durP1;ratioP1;P1;durP2;ratioP2;P2;SDS_P1;SDS_P2;PMS_P1;PMS_P2;Temp;Humidity;BMP_temperature;BMP_pressure;BME280_temperature;BME280_humidity;BME280_pressure;Samples;Min_cycle;Max_cycle;Signal;HPM_P1;HPM_P2
2023/08/07 00:00:40;;;;;;;9.68;6.68;;;14.70;99.90;;;;;;5016537;28;20091;-81
2023/08/07 00:03:06;;;;;;;9.85;7.20;;;14.70;99.90;;;;;;5045714;28;20052;-81
2023/08/07 00:05:31;;;;;;;10.23;7.07;;;14.70;99.90;;;;;;5037760;28;20033;-81
2023/08/07 00:07:57;;;;;;;8.73;7.15;;;14.70;99.90;;;;;;5053209;28;20127;-81
2023/08/07 00:10:24;;;;;;;11.90;7.25;;;14.80;99.90;;;;;;5049836;28;20044;-81
2023/08/07 00:12:50;;;;;;;8.02;6.20;;;14.80;99.90;;;;;;5013417;28;20037;-81
2023/08/07 00:15:15;;;;;;;9.52;6.57;;;14.80;99.90;;;;;;5030832;28;20041;-82
2023/08/07 00:17:41;;;;;;;8.15;6.35;;;14.80;99.90;;;;;;5042388;28;20043;-81
2023/08/07 00:20:07;;;;;;;9.30;6.55;;;14.80;99.90;;;;;;5059564;28;20072;-81
2023/08/07 00:22:33;;;;;;;8.38;6.75;;;14.90;99.90;;;;;;5040271;28;20048;-82
2023/08/07 00:24:59;;;;;;;8.57;6.20;;;14.80;99.90;;;;;;5043461;28;20428;-81
2023/08/07 00:27:25;;;;;;;6.55;5.55;;;14.80;99.90;;;;;;5040867;28;20111;-81
2023/08/07 00:29:51;;;;;;;6.28;5.25;;;14.90;99.90;;;;;;5028557;28;20033;-81
2023/08/07 00:32:17;;;;;;;6.35;5.65;;;14.90;99.90;;;;;;5041271;28;20119;-81
2023/08/07 00:34:42;;;;;;;7.50;5.47;;;14.90;99.90;;;;;;5021240;28;20124;-81
2023/08/07 00:37:08;;;;;;;8.55;5.57;;;14.90;99.90;;;;;;5053628;28;20119;-81
2023/08/07 00:39:34;;;;;;;8.02;5.93;;;15.00;99.90;;;;;;5020096;28;20049;-81
2023/08/07 00:41:59;;;;;;;7.85;5.43;;;15.00;99.90;;;;;;5040266;28;20061;-82
2023/08/07 00:44:25;;;;;;;7.82;5.25;;;15.00;99.90;;;;;;5036896;28;20436;-82
2023/08/07 00:46:51;;;;;;;7.30;5.68;;;15.00;99.90;;;;;;5034787;28;20086;-81
2023/08/07 00:49:18;;;;;;;7.60;5.40;;;15.00;99.90;;;;;;5040414;28;20534;-81
2023/08/07 00:51:45;;;;;;;6.20;5.03;;;15.00;99.90;;;;;;5054740;28;20101;-81
2023/08/07 00:54:14;;;;;;;7.50;4.95;;;15.00;99.90;;;;;;5039243;28;20458;-82
2023/08/07 00:56:40;;;;;;;6.60;5.38;;;15.10;99.90;;;;;;5060115;28;20044;-81
2023/08/07 00:59:06;;;;;;;8.05;5.63;;;15.10;99.90;;;;;;5030955;28;20052;-82
2023/08/07 01:01:32;;;;;;;6.35;5.43;;;15.10;99.90;;;;;;5027203;28;20041;-82
2023/08/07 01:03:58;;;;;;;6.55;5.22;;;15.10;99.90;;;;;;5033423;28;20059;-82
2023/08/07 01:06:23;;;;;;;6.97;5.53;;;15.00;99.90;;;;;;5033438;28;20473;-82
2023/08/07 01:08:50;;;;;;;6.97;5.70;;;15.10;99.90;;;;;;5033254;28;20033;-82
2023/08/07 01:11:24;;;;;;;8.48;5.25;;;15.00;99.90;;;;;;5033060;28;20037;-82
2023/08/07 01:14:08;;;;;;;9.00;5.32;;;15.00;99.90;;;;;;5049285;28;20033;-81
2023/08/07 01:16:35;;;;;;;7.78;5.55;;;14.90;99.90;;;;;;5025907;28;20059;-82
2023/08/07 01:19:03;;;;;;;7.70;5.75;;;14.90;99.90;;;;;;5027888;28;20167;-82
2023/08/07 01:21:29;;;;;;;7.90;5.78;;;14.90;99.90;;;;;;5061908;28;20056;-82
2023/08/07 01:23:54;;;;;;;6.97;5.55;;;14.90;99.90;;;;;;5055943;28;20044;-82
2023/08/07 01:26:21;;;;;;;8.93;5.97;;;14.90;99.90;;;;;;5034881;28;20036;-81
2023/08/07 01:28:55;;;;;;;8.10;5.57;;;14.90;99.90;;;;;;5045055;28;20033;-82
2023/08/07 01:31:24;;;;;;;8.98;6.40;;;14.80;99.90;;;;;;5049921;28;20055;-82
2023/08/07 01:34:10;;;;;;;8.73;5.80;;;14.80;99.90;;;;;;5049529;28;20384;-81
2023/08/07 01:36:39;;;;;;;9.55;5.70;;;14.80;99.90;;;;;;5054625;28;20055;-82
2023/08/07 01:39:06;;;;;;;8.52;6.05;;;14.70;99.90;;;;;;5043156;28;20041;-82
2023/08/07 01:41:33;;;;;;;9.75;6.05;;;14.70;99.90;;;;;;5047413;28;20068;-82
2023/08/07 01:43:59;;;;;;;6.68;5.38;;;14.70;99.90;;;;;;5059317;28;20040;-82
2023/08/07 01:46:25;;;;;;;8.18;6.03;;;14.70;99.90;;;;;;5039495;28;20119;-82
2023/08/07 01:48:50;;;;;;;8.48;5.50;;;14.70;99.90;;;;;;5055483;28;20047;-82
2023/08/07 01:51:16;;;;;;;7.28;5.40;;;14.70;99.90;;;;;;5015899;28;20041;-81
2023/08/07 01:53:42;;;;;;;6.03;5.13;;;14.70;99.90;;;;;;5037785;28;20057;-82
2023/08/07 01:56:07;;;;;;;7.72;4.97;;;14.70;99.90;;;;;;5043493;28;20439;-82
2023/08/07 01:58:33;;;;;;;10.93;5.10;;;14.70;99.90;;;;;;5041602;28;20045;-82
2023/08/07 02:00:59;;;;;;;7.80;4.93;;;14.70;99.90;;;;;;5045403;28;20550;-82
2023/08/07 02:03:24;;;;;;;8.07;4.72;;;14.70;99.90;;;;;;5048190;28;20037;-82
2023/08/07 02:05:50;;;;;;;9.85;4.97;;;14.70;99.90;;;;;;5045701;28;20190;-82
2023/08/07 02:08:16;;;;;;;11.23;4.70;;;14.60;99.90;;;;;;5046683;28;20572;-81
2023/08/07 02:10:41;;;;;;;8.13;4.45;;;14.70;99.90;;;;;;5027679;28;20125;-82
2023/08/07 02:13:07;;;;;;;8.30;4.53;;;14.60;99.90;;;;;;5037382;28;20086;-82
2023/08/07 02:15:33;;;;;;;5.68;4.20;;;14.60;99.90;;;;;;5058439;28;20044;-82
2023/08/07 02:17:58;;;;;;;7.97;4.22;;;14.60;99.90;;;;;;5052590;28;20086;-82
2023/08/07 02:20:24;;;;;;;9.85;3.95;;;14.60;99.90;;;;;;5019107;28;20476;-82
2023/08/07 02:22:50;;;;;;;8.02;4.00;;;14.60;99.90;;;;;;5035842;28;20041;-82
2023/08/07 02:25:16;;;;;;;7.32;3.78;;;14.60;99.90;;;;;;5052087;28;20089;-81
2023/08/07 02:27:41;;;;;;;6.97;3.53;;;14.60;99.90;;;;;;5019134;28;20045;-82
2023/08/07 02:30:07;;;;;;;10.15;3.80;;;14.70;99.90;;;;;;5039133;28;20029;-82
2023/08/07 02:32:33;;;;;;;9.70;3.72;;;14.70;99.90;;;;;;5035569;28;20122;-82
2023/08/07 02:34:59;;;;;;;9.23;3.40;;;14.70;99.90;;;;;;5035349;28;20481;-82
2023/08/07 02:37:24;;;;;;;8.75;3.35;;;14.60;99.90;;;;;;5023453;28;20403;-82
2023/08/07 02:39:50;;;;;;;7.03;3.80;;;14.70;99.90;;;;;;5025128;28;20044;-81
2023/08/07 02:42:16;;;;;;;9.75;3.75;;;14.60;99.90;;;;;;5043640;28;20053;-82
2023/08/07 02:44:42;;;;;;;10.88;3.40;;;14.60;99.90;;;;;;5021066;28;20044;-81
2023/08/07 02:47:07;;;;;;;13.18;3.47;;;14.70;99.90;;;;;;5051373;28;20051;-82
2023/08/07 02:49:33;;;;;;;9.15;3.20;;;14.60;99.90;;;;;;5018428;28;20040;-82
2023/08/07 02:51:59;;;;;;;6.05;3.33;;;14.70;99.90;;;;;;5060734;28;20144;-82
2023/08/07 02:54:25;;;;;;;8.20;3.22;;;14.70;99.90;;;;;;5027399;28;20407;-83
2023/08/07 02:56:50;;;;;;;7.85;3.00;;;14.70;99.90;;;;;;5040168;28;20051;-82
2023/08/07 02:59:16;;;;;;;8.68;3.10;;;14.60;99.90;;;;;;5044598;28;20825;-83
2023/08/07 03:01:44;;;;;;;11.07;3.70;;;14.60;99.90;;;;;;5044498;28;20072;-82
2023/08/07 03:04:09;;;;;;;7.75;3.10;;;14.60;99.90;;;;;;5060995;28;20044;-82
2023/08/07 03:06:35;;;;;;;9.65;3.50;;;14.60;99.90;;;;;;5060214;28;20045;-82
2023/08/07 03:09:01;;;;;;;8.18;3.40;;;14.60;99.90;;;;;;5059278;28;20400;-82
2023/08/07 03:11:27;;;;;;;10.75;4.00;;;14.50;99.90;;;;;;5058068;28;20433;-82
2023/08/07 03:13:52;;;;;;;9.63;3.38;;;14.50;99.90;;;;;;5055739;28;20045;-81
2023/08/07 03:16:18;;;;;;;10.05;3.50;;;14.50;99.90;;;;;;5060613;28;20400;-82
2023/08/07 03:18:44;;;;;;;10.43;3.63;;;14.50;99.90;;;;;;5006284;28;20535;-81
2023/08/07 03:21:09;;;;;;;10.95;3.22;;;14.50;99.90;;;;;;5034220;28;20045;-82
2023/08/07 03:23:35;;;;;;;11.48;3.47;;;14.40;99.90;;;;;;5037866;28;20040;-82
2023/08/07 03:26:09;;;;;;;11.75;3.40;;;14.40;99.90;;;;;;5054750;28;20037;-82
2023/08/07 03:28:35;;;;;;;14.00;3.38;;;14.40;99.90;;;;;;5071537;28;20042;-82
2023/08/07 03:31:02;;;;;;;9.52;3.75;;;14.40;99.90;;;;;;5029790;28;20041;-82
2023/08/07 03:33:28;;;;;;;8.73;3.58;;;14.40;99.90;;;;;;5034466;28;20095;-83
2023/08/07 03:35:54;;;;;;;12.00;3.28;;;14.40;99.90;;;;;;5034638;28;20049;-82
2023/08/07 03:38:19;;;;;;;12.80;4.07;;;14.40;99.90;;;;;;5051381;28;20381;-83
2023/08/07 03:40:45;;;;;;;13.65;3.58;;;14.40;99.90;;;;;;5034278;28;20484;-83
2023/08/07 03:43:11;;;;;;;8.65;3.35;;;14.40;99.90;;;;;;5034742;28;20041;-83
2023/08/07 03:45:37;;;;;;;8.88;3.53;;;14.40;99.90;;;;;;5037797;28;20041;-84
2023/08/07 03:48:02;;;;;;;14.20;4.07;;;14.40;99.90;;;;;;5020733;28;20793;-84
2023/08/07 03:50:30;;;;;;;11.40;3.92;;;14.40;99.90;;;;;;5024970;28;20484;-84
2023/08/07 03:52:56;;;;;;;11.57;3.50;;;14.40;99.90;;;;;;5035508;28;20048;-83
2023/08/07 03:55:22;;;;;;;11.90;3.75;;;14.40;99.90;;;;;;5019792;28;20123;-83
2023/08/07 03:57:47;;;;;;;10.77;3.50;;;14.30;99.90;;;;;;5036964;28;20518;-83
2023/08/07 04:00:13;;;;;;;7.63;3.65;;;14.30;99.90;;;;;;5017875;28;20481;-83
2023/08/07 04:02:40;;;;;;;19.13;3.67;;;14.30;99.90;;;;;;5029561;28;20037;-84
2023/08/07 04:05:06;;;;;;;10.35;3.90;;;14.30;99.90;;;;;;5023738;28;20492;-83
2023/08/07 04:07:31;;;;;;;13.60;3.47;;;14.30;99.90;;;;;;5058211;28;20037;-82
2023/08/07 04:09:57;;;;;;;13.70;3.50;;;14.30;99.90;;;;;;5061863;28;20033;-83
2023/08/07 04:12:23;;;;;;;11.00;3.60;;;14.30;99.90;;;;;;5017542;28;20033;-84
2023/08/07 04:14:48;;;;;;;6.90;3.17;;;14.30;99.90;;;;;;5050576;28;20480;-83
2023/08/07 04:17:14;;;;;;;11.90;3.83;;;14.30;99.90;;;;;;5021878;28;20070;-82
2023/08/07 04:19:40;;;;;;;10.38;3.53;;;14.30;99.90;;;;;;5050393;28;20037;-83
2023/08/07 04:22:05;;;;;;;10.48;3.35;;;14.20;99.90;;;;;;5030379;28;20535;-83
2023/08/07 04:24:31;;;;;;;9.88;3.47;;;14.30;99.90;;;;;;5007884;28;20439;-83
2023/08/07 04:26:57;;;;;;;8.45;3.55;;;14.30;99.90;;;;;;5022647;28;20064;-84
2023/08/07 04:29:24;;;;;;;13.20;4.20;;;14.30;99.90;;;;;;5047834;28;20121;-87
2023/08/07 04:31:50;;;;;;;9.60;3.85;;;14.30;99.90;;;;;;5069728;28;20050;-87
2023/08/07 04:34:15;;;;;;;11.60;3.38;;;14.30;99.90;;;;;;5027305;28;20036;-86
2023/08/07 04:36:41;;;;;;;9.65;3.20;;;14.30;99.90;;;;;;5033522;28;20503;-87
2023/08/07 04:39:07;;;;;;;8.30;3.10;;;14.30;99.90;;;;;;5027930;28;20037;-86
2023/08/07 04:41:32;;;;;;;10.52;3.35;;;14.30;99.90;;;;;;5032859;28;20141;-85
2023/08/07 04:43:58;;;;;;;8.73;3.47;;;14.30;99.90;;;;;;5055599;28;20434;-86
2023/08/07 04:46:24;;;;;;;7.82;2.88;;;14.40;99.90;;;;;;5069259;28;20400;-86
2023/08/07 04:48:50;;;;;;;10.88;3.38;;;14.40;99.90;;;;;;5069465;28;20040;-89
2023/08/07 04:51:16;;;;;;;9.80;3.67;;;14.40;99.90;;;;;;5021022;28;20040;-85
2023/08/07 04:53:41;;;;;;;10.77;3.42;;;14.40;99.90;;;;;;5032943;28;20037;-86
2023/08/07 04:56:07;;;;;;;11.63;4.20;;;14.40;99.90;;;;;;5049802;28;20064;-87
2023/08/07 04:58:33;;;;;;;8.50;3.20;;;14.50;99.90;;;;;;5033358;28;20136;-87
2023/08/07 05:00:59;;;;;;;6.45;3.33;;;14.50;99.90;;;;;;5033289;28;20049;-85
2023/08/07 05:03:30;;;;;;;11.73;3.88;;;14.50;99.90;;;;;;5047129;28;20131;-88
2023/08/07 05:06:00;;;;;;;10.00;3.58;;;14.50;99.90;;;;;;5039382;28;20486;-85
2023/08/07 05:08:26;;;;;;;8.82;3.95;;;14.50;99.90;;;;;;5040549;28;20033;-87
2023/08/07 05:10:52;;;;;;;9.95;3.75;;;14.60;99.90;;;;;;5015519;28;20060;-88
2023/08/07 05:13:17;;;;;;;9.18;3.42;;;14.60;99.90;;;;;;5035929;28;20037;-87
2023/08/07 05:15:43;;;;;;;8.98;3.78;;;14.60;99.90;;;;;;5044116;28;20569;-88
2023/08/07 05:18:09;;;;;;;8.95;4.03;;;14.70;99.90;;;;;;5022028;28;20147;-86
2023/08/07 05:20:34;;;;;;;8.60;3.60;;;14.70;99.90;;;;;;5039525;28;20045;-87
2023/08/07 05:23:00;;;;;;;14.65;4.95;;;14.70;99.90;;;;;;5036964;28;20133;-87
2023/08/07 05:25:26;;;;;;;11.88;4.25;;;14.70;99.90;;;;;;5037418;28;20064;-85
2023/08/07 05:27:52;;;;;;;16.40;4.80;;;14.70;99.90;;;;;;5037760;28;20044;-87
2023/08/07 05:30:17;;;;;;;9.18;4.30;;;14.80;99.90;;;;;;5037166;28;20040;-84
2023/08/07 05:32:43;;;;;;;11.18;4.10;;;14.80;99.90;;;;;;5055200;28;20033;-84
2023/08/07 05:35:09;;;;;;;9.88;3.65;;;14.70;99.90;;;;;;5038807;28;20032;-86
2023/08/07 05:37:35;;;;;;;7.82;4.03;;;14.70;99.90;;;;;;5054613;28;20488;-85
2023/08/07 05:40:02;;;;;;;9.63;4.45;;;14.70;99.90;;;;;;5037040;28;20048;-83
2023/08/07 05:42:28;;;;;;;9.80;3.40;;;14.70;99.90;;;;;;5064348;28;20381;-85
2023/08/07 05:44:53;;;;;;;10.13;3.88;;;14.70;99.90;;;;;;5065987;28;20047;-84
2023/08/07 05:47:19;;;;;;;7.97;3.58;;;14.60;99.90;;;;;;5064238;28;20509;-84
2023/08/07 05:49:45;;;;;;;13.95;4.55;;;14.70;99.90;;;;;;5042289;28;20033;-85
2023/08/07 05:52:10;;;;;;;12.32;5.00;;;14.70;99.90;;;;;;5026954;28;20045;-86
2023/08/07 05:54:36;;;;;;;11.32;4.00;;;14.70;99.90;;;;;;5020859;28;20110;-88
2023/08/07 05:57:03;;;;;;;9.02;3.92;;;14.70;99.90;;;;;;5052600;28;20064;-87
2023/08/07 05:59:29;;;;;;;12.60;4.40;;;14.80;99.90;;;;;;5054132;28;20063;-84
2023/08/07 06:01:55;;;;;;;12.15;4.30;;;14.80;99.90;;;;;;5061514;28;20045;-84
2023/08/07 06:04:21;;;;;;;13.23;4.78;;;14.80;99.90;;;;;;5045905;28;20037;-86
2023/08/07 06:06:47;;;;;;;10.05;4.47;;;14.80;99.90;;;;;;5046575;28;20044;-86
2023/08/07 06:09:15;;;;;;;10.00;4.65;;;14.80;99.90;;;;;;5056725;28;20382;-86
2023/08/07 06:11:41;;;;;;;11.88;4.93;;;14.90;99.90;;;;;;5061571;28;20170;-84
2023/08/07 06:14:07;;;;;;;10.68;4.63;;;14.90;99.90;;;;;;5061831;28;20530;-83
2023/08/07 06:16:33;;;;;;;10.90;4.43;;;15.00;99.90;;;;;;5059801;28;20052;-84
2023/08/07 06:18:58;;;;;;;11.20;4.50;;;15.00;99.90;;;;;;5030428;28;20496;-84
2023/08/07 06:21:24;;;;;;;14.93;4.70;;;15.00;99.90;;;;;;5045020;28;20091;-83
2023/08/07 06:23:50;;;;;;;17.27;4.75;;;15.10;99.90;;;;;;5037946;28;20041;-82
2023/08/07 06:26:16;;;;;;;14.43;5.30;;;15.20;99.90;;;;;;5061460;28;20083;-84
2023/08/07 06:28:42;;;;;;;16.42;4.45;;;15.30;99.90;;;;;;5050877;28;20040;-82
2023/08/07 06:31:10;;;;;;;13.57;4.70;;;15.40;99.90;;;;;;5037389;28;20049;-82
2023/08/07 06:33:36;;;;;;;12.18;4.40;;;15.40;99.90;;;;;;5050767;28;20047;-83
2023/08/07 06:36:06;;;;;;;12.10;4.45;;;15.40;99.90;;;;;;5051583;28;21588;-82
2023/08/07 06:38:32;;;;;;;14.77;4.65;;;15.30;99.90;;;;;;5047423;28;20112;-83
2023/08/07 06:40:58;;;;;;;11.98;4.00;;;15.20;99.90;;;;;;5002624;28;20136;-84
2023/08/07 06:43:23;;;;;;;13.32;4.47;;;15.10;99.90;;;;;;5036194;28;20084;-83
2023/08/07 06:45:50;;;;;;;10.23;4.13;;;15.00;99.90;;;;;;5045748;28;20044;-84
2023/08/07 06:48:16;;;;;;;12.27;3.90;;;15.00;99.90;;;;;;5034550;28;20044;-84
2023/08/07 06:50:41;;;;;;;11.32;4.40;;;15.00;99.90;;;;;;5038041;28;20041;-86
2023/08/07 06:53:07;;;;;;;11.98;4.32;;;14.90;99.90;;;;;;5024433;28;20123;-82
2023/08/07 06:55:33;;;;;;;14.45;4.82;;;14.90;99.90;;;;;;5065564;28;20090;-83
2023/08/07 06:57:59;;;;;;;9.70;3.90;;;14.90;99.90;;;;;;5025107;28;20033;-83
2023/08/07 07:00:25;;;;;;;16.40;4.75;;;14.90;99.90;;;;;;5000563;28;20041;-83
2023/08/07 07:02:51;;;;;;;11.27;4.00;;;14.90;99.90;;;;;;5046908;28;20079;-83
2023/08/07 07:05:17;;;;;;;11.82;4.45;;;14.90;99.90;;;;;;5055123;28;20064;-85
2023/08/07 07:07:42;;;;;;;15.20;4.57;;;14.90;99.90;;;;;;5042690;28;20467;-87
2023/08/07 07:10:08;;;;;;;12.82;4.18;;;14.90;99.90;;;;;;5048172;28;20043;-83
2023/08/07 07:12:34;;;;;;;12.93;4.30;;;14.90;99.90;;;;;;5035802;28;20119;-84
2023/08/07 07:15:00;;;;;;;18.02;4.35;;;14.90;99.90;;;;;;5019125;28;20108;-86
2023/08/07 07:17:26;;;;;;;10.70;3.65;;;15.00;99.90;;;;;;5034946;28;20033;-84
2023/08/07 07:19:51;;;;;;;10.45;4.00;;;15.00;99.90;;;;;;5042840;28;20033;-86
2023/08/07 07:22:17;;;;;;;11.20;4.22;;;15.10;99.90;;;;;;5022230;28;20039;-85
2023/08/07 07:24:43;;;;;;;13.90;4.30;;;15.20;99.90;;;;;;5025863;28;20040;-83
2023/08/07 07:27:08;;;;;;;11.10;4.18;;;15.30;99.90;;;;;;5035172;28;20079;-85
2023/08/07 07:29:34;;;;;;;9.80;3.78;;;15.50;99.90;;;;;;5034704;28;20045;-84
2023/08/07 07:32:00;;;;;;;10.70;3.88;;;15.70;99.90;;;;;;5018722;28;20041;-85
2023/08/07 07:34:25;;;;;;;12.35;4.18;;;15.80;99.90;;;;;;5017401;28;20124;-84
2023/08/07 07:36:53;;;;;;;12.80;4.03;;;15.80;99.90;;;;;;5002391;28;20040;-84
2023/08/07 07:39:19;;;;;;;15.43;4.10;;;15.90;99.90;;;;;;5034866;28;20048;-86
2023/08/07 07:41:45;;;;;;;10.55;3.60;;;16.00;99.90;;;;;;5036108;28;20051;-83
2023/08/07 07:44:10;;;;;;;8.63;3.40;;;16.00;99.90;;;;;;5056975;28;20075;-84
2023/08/07 07:46:36;;;;;;;11.57;3.15;;;15.90;99.90;;;;;;5074228;28;20044;-84
2023/08/07 07:49:04;;;;;;;7.75;2.58;;;15.90;99.90;;;;;;5064483;28;20037;-83
2023/08/07 07:51:31;;;;;;;7.05;2.40;;;15.80;99.90;;;;;;5056434;28;20068;-84
2023/08/07 07:53:58;;;;;;;6.38;2.60;;;15.70;99.90;;;;;;5046899;28;20492;-83
2023/08/07 07:56:23;;;;;;;6.72;2.30;;;15.60;99.90;;;;;;5039561;28;20045;-83
2023/08/07 07:58:49;;;;;;;6.40;2.60;;;15.60;99.90;;;;;;5053735;28;20052;-84
2023/08/07 08:01:15;;;;;;;7.03;2.95;;;15.60;99.90;;;;;;5044847;28;20037;-81
2023/08/07 08:03:41;;;;;;;6.85;2.40;;;15.70;99.90;;;;;;5042170;28;20075;-83
2023/08/07 08:06:06;;;;;;;10.95;2.80;;;15.50;99.90;;;;;;5045226;28;20045;-83
2023/08/07 08:08:32;;;;;;;8.63;2.88;;;15.30;99.90;;;;;;5052424;28;20092;-84
2023/08/07 08:10:58;;;;;;;5.80;3.00;;;15.10;99.90;;;;;;5050190;28;20045;-83
2023/08/07 08:13:25;;;;;;;7.18;3.08;;;14.90;99.90;;;;;;5017449;28;20045;-83
2023/08/07 08:15:51;;;;;;;8.55;3.30;;;14.90;99.90;;;;;;5035719;28;20045;-84
2023/08/07 08:18:17;;;;;;;5.93;3.15;;;14.90;99.90;;;;;;5029261;28;20037;-83
2023/08/07 08:20:42;;;;;;;6.10;3.00;;;14.90;99.90;;;;;;5043781;28;20045;-83
2023/08/07 08:23:09;;;;;;;7.93;3.53;;;15.00;99.90;;;;;;5049687;28;20041;-83
2023/08/07 08:25:35;;;;;;;8.80;3.10;;;15.10;99.90;;;;;;5044566;28;20130;-81
2023/08/07 08:28:01;;;;;;;7.70;3.00;;;15.20;99.90;;;;;;5057471;28;20042;-83
2023/08/07 08:30:29;;;;;;;10.65;2.97;;;15.40;99.90;;;;;;5026743;28;20486;-81
2023/08/07 08:32:55;;;;;;;8.90;2.75;;;15.60;99.90;;;;;;5048560;28;20040;-82
2023/08/07 08:35:21;;;;;;;6.55;2.63;;;15.40;99.90;;;;;;5047803;28;20060;-84
2023/08/07 08:37:47;;;;;;;7.93;2.63;;;15.20;99.90;;;;;;5059567;28;20135;-84
2023/08/07 08:40:16;;;;;;;6.80;3.00;;;15.10;99.90;;;;;;5023862;28;20436;-86
2023/08/07 08:42:47;;;;;;;6.88;3.35;;;15.00;99.90;;;;;;5045821;28;20544;-83
2023/08/07 08:45:14;;;;;;;6.60;3.20;;;14.90;99.90;;;;;;5036068;28;20125;-84
2023/08/07 08:47:43;;;;;;;10.02;3.72;;;14.90;99.90;;;;;;5030444;28;20495;-83
2023/08/07 08:50:11;;;;;;;11.45;3.75;;;14.90;99.90;;;;;;5050934;28;20040;-83
2023/08/07 08:52:40;;;;;;;9.90;3.47;;;14.90;99.90;;;;;;5034088;28;20041;-84
2023/08/07 08:55:08;;;;;;;8.27;3.75;;;14.90;99.90;;;;;;5034472;28;20480;-83
2023/08/07 08:57:35;;;;;;;10.32;3.53;;;15.10;99.90;;;;;;5048083;28;20068;-85
2023/08/07 09:00:06;;;;;;;7.97;3.42;;;15.10;99.90;;;;;;5041530;28;20048;-83
2023/08/07 09:02:33;;;;;;;7.45;3.40;;;15.20;99.90;;;;;;5032903;28;20099;-85
2023/08/07 09:04:59;;;;;;;8.80;3.65;;;15.30;99.90;;;;;;5035769;28;20051;-84
2023/08/07 09:07:26;;;;;;;10.98;3.58;;;15.50;99.90;;;;;;5041911;28;20171;-85
2023/08/07 09:09:53;;;;;;;11.55;3.47;;;15.70;99.90;;;;;;5046405;28;20041;-83
2023/08/07 09:12:26;;;;;;;8.18;3.63;;;15.80;99.90;;;;;;5037552;28;20045;-84
2023/08/07 09:15:01;;;;;;;7.30;3.30;;;16.00;99.90;;;;;;5043671;28;20044;-83
2023/08/07 09:17:33;;;;;;;8.15;3.22;;;16.20;99.90;;;;;;5049349;28;20416;-84
2023/08/07 09:19:59;;;;;;;13.55;3.63;;;16.40;99.90;;;;;;5056324;28;20052;-86
2023/08/07 09:22:25;;;;;;;9.13;3.90;;;16.50;99.90;;;;;;5037868;28;20489;-84
2023/08/07 09:24:51;;;;;;;11.38;3.15;;;16.70;99.90;;;;;;5035968;28;20047;-84
2023/08/07 09:27:16;;;;;;;8.30;3.40;;;16.90;99.90;;;;;;5055293;28;20480;-84
2023/08/07 09:29:46;;;;;;;9.70;3.15;;;17.00;99.90;;;;;;5046449;28;20036;-83
2023/08/07 09:32:13;;;;;;;7.05;2.92;;;17.20;99.90;;;;;;5037665;28;20056;-82
2023/08/07 09:34:42;;;;;;;7.45;2.72;;;17.20;99.90;;;;;;5050943;28;20055;-82
2023/08/07 09:37:11;;;;;;;4.85;2.47;;;17.20;99.90;;;;;;5058997;28;20036;-81
2023/08/07 09:39:37;;;;;;;8.52;2.90;;;17.20;99.90;;;;;;5052100;28;20048;-84
2023/08/07 09:42:04;;;;;;;5.20;2.60;;;17.30;99.90;;;;;;5020003;28;20126;-83
2023/08/07 09:44:36;;;;;;;6.65;2.90;;;17.20;99.90;;;;;;5034901;28;20048;-84
2023/08/07 09:47:15;;;;;;;7.45;2.63;;;17.10;99.90;;;;;;5019848;28;20502;-83
2023/08/07 09:49:41;;;;;;;5.28;2.80;;;16.90;99.90;;;;;;5035183;28;20045;-81
2023/08/07 09:52:11;;;;;;;7.22;2.50;;;16.90;99.90;;;;;;5054269;28;20557;-84
2023/08/07 09:54:37;;;;;;;6.15;2.50;;;16.90;99.90;;;;;;5046247;28;20052;-83
2023/08/07 09:57:04;;;;;;;7.00;2.58;;;17.10;99.90;;;;;;5049659;28;20036;-81
2023/08/07 09:59:32;;;;;;;6.88;2.20;;;17.20;99.90;;;;;;5036006;28;20442;-82
2023/08/07 10:02:00;;;;;;;6.43;2.38;;;17.10;99.90;;;;;;5043450;28;20381;-83
2023/08/07 10:04:26;;;;;;;6.15;2.50;;;17.00;99.90;;;;;;5067543;28;20106;-82
2023/08/07 10:06:53;;;;;;;6.90;2.28;;;16.80;99.90;;;;;;5036055;28;20407;-85
2023/08/07 10:09:20;;;;;;;9.23;2.88;;;16.60;99.90;;;;;;5019937;28;20439;-84
2023/08/07 10:11:46;;;;;;;7.40;2.95;;;16.60;99.90;;;;;;5052877;28;20047;-81
2023/08/07 10:14:15;;;;;;;8.80;3.10;;;16.70;99.90;;;;;;5053340;28;20091;-82
2023/08/07 10:16:41;;;;;;;8.13;3.33;;;16.90;99.90;;;;;;5052113;28;20037;-79
2023/08/07 10:19:11;;;;;;;10.43;3.10;;;17.10;99.90;;;;;;5052907;28;20033;-80
2023/08/07 10:21:39;;;;;;;7.60;2.85;;;17.20;99.90;;;;;;5035667;28;20033;-82
2023/08/07 10:24:06;;;;;;;8.35;3.03;;;17.40;99.90;;;;;;5035644;28;20036;-81
2023/08/07 10:26:34;;;;;;;10.00;3.10;;;17.40;99.90;;;;;;5052513;28;20393;-82
2023/08/07 10:29:09;;;;;;;5.38;2.72;;;17.30;99.90;;;;;;5035469;28;20087;-81
2023/08/07 10:31:36;;;;;;;6.90;2.70;;;17.10;99.90;;;;;;5054094;28;20037;-80
2023/08/07 10:34:02;;;;;;;8.10;2.95;;;17.00;99.90;;;;;;5018935;28;20132;-80
2023/08/07 10:36:35;;;;;;;6.20;2.67;;;16.90;99.90;;;;;;5030612;28;20041;-82
2023/08/07 10:39:12;;;;;;;6.35;2.65;;;16.80;99.90;;;;;;5047445;28;20045;-81
2023/08/07 10:41:44;;;;;;;9.50;3.20;;;16.80;99.90;;;;;;5032191;28;20489;-81
2023/08/07 10:44:31;;;;;;;6.75;2.97;;;16.90;99.90;;;;;;5041242;28;20534;-82
2023/08/07 10:46:58;;;;;;;6.22;2.80;;;17.00;99.90;;;;;;5049890;28;20060;-82
2023/08/07 10:49:35;;;;;;;6.05;2.78;;;17.10;99.90;;;;;;5051908;28;20041;-83
2023/08/07 10:52:11;;;;;;;5.72;2.20;;;17.10;99.90;;;;;;5036060;28;20049;-82
2023/08/07 10:54:58;;;;;;;7.20;2.53;;;17.10;99.90;;;;;;5051997;28;20049;-84
2023/08/07 10:57:31;;;;;;;5.60;2.65;;;17.00;99.90;;;;;;5051433;28;20072;-82
2023/08/07 10:59:57;;;;;;;7.07;2.90;;;16.90;99.90;;;;;;5040928;28;20036;-82
2023/08/07 11:02:28;;;;;;;9.63;2.90;;;16.90;99.90;;;;;;5048100;28;20217;-84
2023/08/07 11:04:55;;;;;;;6.10;2.90;;;16.90;99.90;;;;;;5052041;28;20052;-81
2023/08/07 11:07:29;;;;;;;6.78;2.88;;;16.80;99.90;;;;;;5041470;28;20099;-84
2023/08/07 11:09:56;;;;;;;5.70;2.95;;;16.80;99.90;;;;;;5032666;28;20357;-84
2023/08/07 11:12:28;;;;;;;6.35;2.67;;;16.80;99.90;;;;;;5043845;28;20037;-85
2023/08/07 11:14:58;;;;;;;6.05;2.65;;;17.00;99.90;;;;;;5051975;28;20036;-84
2023/08/07 11:17:28;;;;;;;5.57;2.70;;;17.30;99.90;;;;;;5052874;28;20738;-82
2023/08/07 11:19:55;;;;;;;5.05;2.38;;;17.60;99.90;;;;;;5052894;28;20092;-82
2023/08/07 11:22:21;;;;;;;6.10;2.33;;;17.80;99.90;;;;;;5051010;28;20044;-82
2023/08/07 11:24:47;;;;;;;6.80;2.58;;;17.80;99.90;;;;;;5050899;28;20041;-82
2023/08/07 11:27:13;;;;;;;6.57;2.78;;;17.80;99.90;;;;;;5034361;28;20812;-82
2023/08/07 11:29:39;;;;;;;4.80;2.33;;;17.70;99.90;;;;;;5014742;28;20041;-86
2023/08/07 11:32:05;;;;;;;3.33;2.00;;;17.50;99.90;;;;;;4999002;28;20432;-87
2023/08/07 11:34:31;;;;;;;8.02;2.15;;;17.60;99.90;;;;;;5044712;28;20028;-84
2023/08/07 11:37:02;;;;;;;7.20;2.10;;;17.60;99.90;;;;;;5033557;28;20086;-85
2023/08/07 11:39:28;;;;;;;5.82;2.15;;;17.60;99.90;;;;;;5050906;28;20053;-85
2023/08/07 11:41:55;;;;;;;6.22;2.22;;;17.50;99.90;;;;;;5034314;28;20060;-85
2023/08/07 11:44:22;;;;;;;6.32;2.25;;;17.50;99.90;;;;;;5051614;28;20098;-86
2023/08/07 11:46:48;;;;;;;6.63;2.20;;;17.50;99.90;;;;;;5051441;28;20052;-85
2023/08/07 11:49:13;;;;;;;6.82;2.22;;;17.50;99.90;;;;;;5034945;28;20388;-80
2023/08/07 11:51:40;;;;;;;5.10;2.15;;;17.60;99.90;;;;;;5050821;28;20052;-82
2023/08/07 11:54:06;;;;;;;5.38;1.90;;;17.60;99.90;;;;;;5034185;28;20557;-83
2023/08/07 11:56:32;;;;;;;4.90;2.33;;;17.60;99.90;;;;;;5034148;28;20340;-83
2023/08/07 11:58:58;;;;;;;5.75;2.10;;;17.50;99.90;;;;;;5025257;28;20048;-83
2023/08/07 12:01:26;;;;;;;4.70;1.83;;;17.30;99.90;;;;;;5050821;28;20041;-84
2023/08/07 12:03:57;;;;;;;5.20;2.13;;;17.20;99.90;;;;;;5051065;28;20469;-84
2023/08/07 12:06:24;;;;;;;6.23;2.43;;;17.30;99.90;;;;;;5051054;28;20494;-83
2023/08/07 12:08:54;;;;;;;4.65;2.10;;;17.40;99.90;;;;;;5043233;28;20310;-83
2023/08/07 12:11:23;;;;;;;6.60;2.22;;;17.50;99.90;;;;;;5055115;28;20354;-83
2023/08/07 12:13:49;;;;;;;3.78;1.80;;;17.60;99.90;;;;;;5034030;28;20403;-85
2023/08/07 12:16:16;;;;;;;6.30;2.13;;;17.60;99.90;;;;;;5034378;28;20123;-85
2023/08/07 12:18:46;;;;;;;4.45;2.50;;;17.60;99.90;;;;;;5050916;28;20403;-85
2023/08/07 12:21:14;;;;;;;6.35;2.00;;;17.70;99.90;;;;;;5050067;28;20136;-83
2023/08/07 12:23:40;;;;;;;3.58;1.92;;;17.80;99.90;;;;;;5033831;28;20476;-81
2023/08/07 12:26:06;;;;;;;4.65;2.10;;;17.90;99.90;;;;;;5033731;28;20759;-84
2023/08/07 12:28:36;;;;;;;5.55;2.30;;;17.90;99.90;;;;;;5050295;28;20048;-84
2023/08/07 12:31:02;;;;;;;5.47;2.50;;;17.90;99.90;;;;;;5039858;28;20052;-84
2023/08/07 12:33:31;;;;;;;7.32;2.50;;;17.70;99.90;;;;;;5050664;28;20045;-84
2023/08/07 12:35:58;;;;;;;4.57;2.13;;;17.60;99.90;;;;;;5050588;28;20041;-84
2023/08/07 12:38:24;;;;;;;5.90;2.28;;;17.50;99.90;;;;;;5037690;28;20063;-83
2023/08/07 12:40:50;;;;;;;7.32;2.60;;;17.40;99.90;;;;;;5050718;28;20041;-85